Time;durP1;ratioP1;P1;durP2;ratioP2;P2;SDS_P1;SDS_P2;PMS_P1;PMS_P2;Temp;Humidity;BMP_temperature;BMP_pressure;BME280_temperature;BME280_humidity;BME280_pressure;Samples;Min_cycle;Max_cycle;Signal;HPM_P1;HPM_P2
2023/03/15 00:01:15;;;;;;;4.85;0.65;;;3.70;77.30;;;;;;5072151;28;20053;-86
2023/03/15 00:03:44;;;;;;;6.93;0.70;;;3.70;77.10;;;;;;5073859;28;20053;-85
2023/03/15 00:06:11;;;;;;;5.55;0.73;;;3.70;77.20;;;;;;5059189;28;20172;-86
2023/03/15 00:08:38;;;;;;;5.82;0.55;;;3.70;77.50;;;;;;5052748;28;20056;-86
2023/03/15 00:11:06;;;;;;;7.07;0.87;;;3.70;77.70;;;;;;5053337;28;20596;-86
2023/03/15 00:13:34;;;;;;;5.85;0.60;;;3.70;77.50;;;;;;5069992;28;20136;-86
2023/03/15 00:16:02;;;;;;;3.25;0.60;;;3.70;77.70;;;;;;5052116;28;20581;-85
2023/03/15 00:18:29;;;;;;;6.18;0.77;;;3.70;77.80;;;;;;5071706;28;20521;-86
2023/03/15 00:20:59;;;;;;;3.75;0.57;;;3.70;77.90;;;;;;5089300;28;20052;-85
2023/03/15 00:23:26;;;;;;;3.37;0.70;;;3.70;78.20;;;;;;5056605;28;20518;-86
2023/03/15 00:25:54;;;;;;;5.00;0.60;;;3.80;78.20;;;;;;5066530;28;20056;-86
2023/03/15 00:28:21;;;;;;;4.85;0.60;;;3.70;78.30;;;;;;5067178;28;20131;-84
2023/03/15 00:30:48;;;;;;;6.10;0.73;;;3.70;78.20;;;;;;5057208;28;20061;-87
2023/03/15 00:33:16;;;;;;;9.68;1.00;;;3.80;78.60;;;;;;5088270;28;21030;-86
2023/03/15 00:35:44;;;;;;;3.43;0.43;;;3.80;78.60;;;;;;5072092;28;20122;-86
2023/03/15 00:38:13;;;;;;;4.93;0.57;;;3.80;78.70;;;;;;5063108;28;20581;-85
2023/03/15 00:40:42;;;;;;;3.28;0.57;;;3.80;79.40;;;;;;5040007;28;20497;-85
2023/03/15 00:43:09;;;;;;;3.88;0.60;;;3.80;79.20;;;;;;5064865;28;20136;-86
2023/03/15 00:45:36;;;;;;;3.35;0.52;;;3.70;79.70;;;;;;5052304;28;20084;-86
2023/03/15 00:48:03;;;;;;;3.47;0.47;;;3.70;79.90;;;;;;5051740;28;20350;-86
2023/03/15 00:50:30;;;;;;;5.10;0.47;;;3.60;80.10;;;;;;5054491;28;20057;-86
2023/03/15 00:52:57;;;;;;;7.10;0.47;;;3.60;80.10;;;;;;5065675;28;20088;-84
2023/03/15 00:55:26;;;;;;;6.43;0.70;;;3.60;80.10;;;;;;5051685;28;20057;-84
2023/03/15 00:57:53;;;;;;;5.82;1.30;;;3.60;80.30;;;;;;5051727;28;20053;-84
2023/03/15 01:00:23;;;;;;;6.23;0.70;;;3.60;80.40;;;;;;5051350;28;20466;-85
2023/03/15 01:02:50;;;;;;;6.47;0.73;;;3.60;80.40;;;;;;5039663;28;20056;-82
2023/03/15 01:05:17;;;;;;;5.53;0.90;;;3.60;80.60;;;;;;5063819;28;20136;-86
2023/03/15 01:07:44;;;;;;;5.72;0.60;;;3.60;80.70;;;;;;5051770;28;20049;-85
2023/03/15 01:10:14;;;;;;;8.80;0.93;;;3.50;80.70;;;;;;5067894;28;20403;-85
2023/03/15 01:12:42;;;;;;;2.67;0.30;;;3.50;80.70;;;;;;5052963;28;20580;-84
2023/03/15 01:15:12;;;;;;;6.88;0.40;;;3.50;80.70;;;;;;5055055;28;20048;-85
2023/03/15 01:17:40;;;;;;;1.60;0.25;;;3.40;80.70;;;;;;5054909;28;20072;-85
2023/03/15 01:20:08;;;;;;;3.35;0.50;;;3.30;80.90;;;;;;5068643;28;20491;-86
2023/03/15 01:22:35;;;;;;;3.92;0.28;;;3.30;81.00;;;;;;5074258;28;20128;-86
2023/03/15 01:25:02;;;;;;;2.60;0.30;;;3.30;81.10;;;;;;5054960;28;20110;-87
2023/03/15 01:27:30;;;;;;;7.28;0.80;;;3.30;81.00;;;;;;5080333;28;20056;-85
2023/03/15 01:29:58;;;;;;;4.63;0.50;;;3.30;80.80;;;;;;5063067;28;20052;-86
2023/03/15 01:32:26;;;;;;;8.15;0.68;;;3.30;80.70;;;;;;5054791;28;20053;-86
2023/03/15 01:34:53;;;;;;;3.85;0.60;;;3.30;80.70;;;;;;5071616;28;20129;-87
2023/03/15 01:37:23;;;;;;;4.33;0.60;;;3.20;80.70;;;;;;5055052;28;20053;-86
2023/03/15 01:39:50;;;;;;;3.55;0.32;;;3.20;80.60;;;;;;5054660;28;20119;-85
2023/03/15 01:42:17;;;;;;;2.28;0.30;;;3.20;80.60;;;;;;5068246;28;20079;-85
2023/03/15 01:44:53;;;;;;;5.18;0.50;;;3.10;80.50;;;;;;5056173;28;20492;-86
2023/03/15 01:47:24;;;;;;;7.18;0.63;;;3.10;80.40;;;;;;5054474;28;20049;-85
2023/03/15 01:49:58;;;;;;;4.13;0.33;;;3.10;80.20;;;;;;5054354;28;20092;-86
2023/03/15 01:52:26;;;;;;;1.52;0.10;;;3.10;79.90;;;;;;5054404;28;20053;-86
2023/03/15 01:55:04;;;;;;;4.78;0.40;;;3.10;79.70;;;;;;5070760;28;20052;-86
2023/03/15 01:57:36;;;;;;;4.88;0.68;;;3.10;79.70;;;;;;5050385;28;20061;-86
2023/03/15 02:00:10;;;;;;;3.05;0.30;;;3.10;79.60;;;;;;5050349;28;20060;-86
2023/03/15 02:02:47;;;;;;;9.00;0.60;;;3.10;79.30;;;;;;5066508;28;20057;-86
2023/03/15 02:05:23;;;;;;;5.15;0.20;;;3.10;79.10;;;;;;5053096;28;20106;-86
2023/03/15 02:07:53;;;;;;;4.15;0.50;;;3.10;79.00;;;;;;5051498;28;20049;-86
2023/03/15 02:10:30;;;;;;;2.38;0.30;;;3.10;78.90;;;;;;5054183;28;20628;-86
2023/03/15 02:12:59;;;;;;;4.10;0.30;;;3.00;78.70;;;;;;5055282;28;20041;-86
2023/03/15 02:15:27;;;;;;;4.30;0.40;;;3.00;78.70;;;;;;5065468;28;20060;-86
2023/03/15 02:17:56;;;;;;;3.88;0.20;;;3.00;78.60;;;;;;5054328;28;20488;-86
2023/03/15 02:20:35;;;;;;;4.28;0.30;;;3.00;78.50;;;;;;5054043;28;20053;-86
2023/03/15 02:23:05;;;;;;;5.55;0.63;;;3.00;78.30;;;;;;5053786;28;20095;-86
2023/03/15 02:25:41;;;;;;;3.65;0.20;;;2.90;78.30;;;;;;5053931;28;20049;-86
2023/03/15 02:28:13;;;;;;;3.73;0.10;;;2.90;78.30;;;;;;5061908;28;20495;-86
2023/03/15 02:30:43;;;;;;;3.22;0.30;;;2.90;78.10;;;;;;5068694;28;20052;-86
2023/03/15 02:33:16;;;;;;;6.07;0.30;;;2.90;78.10;;;;;;5033786;28;20050;-86
2023/03/15 02:35:43;;;;;;;2.53;0.35;;;2.80;78.20;;;;;;5038751;28;20057;-85
2023/03/15 02:38:13;;;;;;;5.25;0.90;;;2.80;78.20;;;;;;5058462;28;20058;-87
2023/03/15 02:40:40;;;;;;;3.23;0.20;;;2.80;78.10;;;;;;5050181;28;20057;-86
2023/03/15 02:43:14;;;;;;;3.83;0.40;;;2.80;78.10;;;;;;5050646;28;20045;-86
2023/03/15 02:45:41;;;;;;;1.48;0.20;;;2.80;78.10;;;;;;5054498;28;20049;-86
2023/03/15 02:48:10;;;;;;;4.60;0.43;;;2.80;78.10;;;;;;5058648;28;20057;-86
2023/03/15 02:50:37;;;;;;;7.15;0.50;;;2.80;78.00;;;;;;5044616;28;20064;-86
2023/03/15 02:53:05;;;;;;;4.63;0.30;;;2.70;78.10;;;;;;5050097;28;20055;-86
2023/03/15 02:55:32;;;;;;;5.13;0.50;;;2.70;78.10;;;;;;5052431;28;20136;-86
2023/03/15 02:57:59;;;;;;;2.85;0.30;;;2.70;78.20;;;;;;5042086;28;20435;-87
2023/03/15 03:00:29;;;;;;;4.63;0.47;;;2.70;78.20;;;;;;5049480;28;20139;-86
2023/03/15 03:02:58;;;;;;;3.50;0.40;;;2.60;78.20;;;;;;5052645;28;20103;-86
2023/03/15 03:05:25;;;;;;;3.67;0.30;;;2.50;78.10;;;;;;5053249;28;20088;-86
2023/03/15 03:07:53;;;;;;;2.78;0.25;;;2.60;78.20;;;;;;5053338;28;20060;-86
2023/03/15 03:10:21;;;;;;;5.03;0.40;;;2.50;78.20;;;;;;5053137;28;20157;-86
2023/03/15 03:12:52;;;;;;;4.85;0.25;;;2.50;78.10;;;;;;5037996;28;20486;-85
2023/03/15 03:15:24;;;;;;;2.60;0.20;;;2.50;78.10;;;;;;5033137;28;20050;-86
2023/03/15 03:17:53;;;;;;;4.73;0.40;;;2.50;78.00;;;;;;5061415;28;20523;-85
2023/03/15 03:20:22;;;;;;;5.47;0.55;;;2.50;77.90;;;;;;5033143;28;20063;-86
2023/03/15 03:22:49;;;;;;;2.88;0.20;;;2.50;78.10;;;;;;5047490;28;20520;-86
2023/03/15 03:25:18;;;;;;;2.67;0.13;;;2.50;78.00;;;;;;5051310;28;20110;-86
2023/03/15 03:27:47;;;;;;;6.60;0.40;;;2.40;77.90;;;;;;5043369;28;20168;-86
2023/03/15 03:30:15;;;;;;;4.50;0.30;;;2.40;77.80;;;;;;5060809;28;20829;-86
2023/03/15 03:32:48;;;;;;;5.63;0.32;;;2.40;77.90;;;;;;5058854;28;20053;-86
2023/03/15 03:35:17;;;;;;;3.58;0.20;;;2.30;77.90;;;;;;5049006;28;20519;-85
2023/03/15 03:37:44;;;;;;;3.65;0.32;;;2.30;78.00;;;;;;5052786;28;20053;-86
2023/03/15 03:40:18;;;;;;;6.22;0.30;;;2.30;77.90;;;;;;5043800;28;20091;-86
2023/03/15 03:42:45;;;;;;;3.43;0.60;;;2.30;77.90;;;;;;5062344;28;20554;-85
2023/03/15 03:45:13;;;;;;;3.30;0.55;;;2.20;77.90;;;;;;5049798;28;20519;-86
2023/03/15 03:47:43;;;;;;;3.33;0.35;;;2.20;78.00;;;;;;5058863;28;20053;-86
2023/03/15 03:50:11;;;;;;;5.38;0.30;;;2.20;77.90;;;;;;5036708;28;20136;-85
2023/03/15 03:52:42;;;;;;;5.40;0.40;;;2.20;77.90;;;;;;5032100;28;20053;-86
2023/03/15 03:55:13;;;;;;;6.20;0.40;;;2.20;77.80;;;;;;5044968;28;20099;-85
2023/03/15 03:57:41;;;;;;;4.60;0.50;;;2.20;77.80;;;;;;5051420;28;20049;-85
2023/03/15 04:00:14;;;;;;;3.97;0.60;;;2.10;77.70;;;;;;5052053;28;20081;-85
2023/03/15 04:02:44;;;;;;;3.58;0.35;;;2.10;77.60;;;;;;5051365;28;20526;-85
2023/03/15 04:05:14;;;;;;;3.17;0.30;;;2.10;77.70;;;;;;5048662;28;20472;-85
2023/03/15 04:07:43;;;;;;;3.80;0.43;;;2.10;77.60;;;;;;5048479;28;20049;-86
2023/03/15 04:10:13;;;;;;;4.65;0.40;;;2.00;77.70;;;;;;5052116;28;20162;-85
2023/03/15 04:12:43;;;;;;;2.10;0.30;;;2.00;77.70;;;;;;5042674;28;20553;-85
2023/03/15 04:15:11;;;;;;;3.03;0.40;;;2.00;77.60;;;;;;5048391;28;20077;-86
2023/03/15 04:17:39;;;;;;;4.65;0.30;;;2.00;77.70;;;;;;5066481;28;20115;-86
2023/03/15 04:20:10;;;;;;;3.90;0.30;;;2.00;77.60;;;;;;5068569;28;20150;-85
2023/03/15 04:22:38;;;;;;;4.15;0.30;;;2.00;77.50;;;;;;5051637;28;20150;-85
2023/03/15 04:25:25;;;;;;;3.63;0.30;;;2.00;77.50;;;;;;5052048;28;20214;-86
2023/03/15 04:28:15;;;;;;;3.78;0.40;;;2.00;77.50;;;;;;5073723;28;20143;-86
2023/03/15 04:30:49;;;;;;;4.40;0.30;;;2.00;77.50;;;;;;5040952;28;20049;-85
2023/03/15 04:33:39;;;;;;;5.60;0.40;;;2.00;77.50;;;;;;5065278;28;20657;-86
2023/03/15 04:36:25;;;;;;;4.20;0.28;;;1.90;77.50;;;;;;5048737;28;20107;-85
2023/03/15 04:39:09;;;;;;;1.23;0.10;;;1.90;77.50;;;;;;5058191;28;20054;-85
2023/03/15 04:41:50;;;;;;;2.53;0.20;;;1.90;77.50;;;;;;5050432;28;20103;-85
2023/03/15 04:44:40;;;;;;;3.42;0.30;;;1.90;77.40;;;;;;5063207;28;20049;-86
2023/03/15 04:47:26;;;;;;;4.53;0.40;;;1.90;77.30;;;;;;5070479;28;20060;-85
2023/03/15 04:50:04;;;;;;;2.60;0.20;;;1.90;77.30;;;;;;5039019;28;20143;-86
2023/03/15 04:52:53;;;;;;;6.25;0.43;;;1.90;77.50;;;;;;5055456;28;20545;-85
2023/03/15 04:55:39;;;;;;;4.28;0.40;;;1.80;77.40;;;;;;5072184;28;20601;-86
2023/03/15 04:58:17;;;;;;;2.35;0.30;;;1.80;77.50;;;;;;5060198;28;20200;-85
2023/03/15 05:01:05;;;;;;;3.67;0.40;;;1.80;77.50;;;;;;5043964;28;20161;-86
2023/03/15 05:03:58;;;;;;;2.15;0.20;;;1.70;77.60;;;;;;5078227;28;20049;-85
2023/03/15 05:06:48;;;;;;;3.35;0.43;;;1.70;77.80;;;;;;5055123;28;20115;-85
2023/03/15 05:09:39;;;;;;;3.67;0.20;;;1.70;77.70;;;;;;5055155;28;20087;-85
2023/03/15 05:12:24;;;;;;;2.95;0.20;;;1.70;77.90;;;;;;5053890;28;20144;-86
2023/03/15 05:14:53;;;;;;;5.00;0.47;;;1.70;77.90;;;;;;5072323;28;20163;-86
2023/03/15 05:17:35;;;;;;;4.35;0.45;;;1.60;78.10;;;;;;5055468;28;20046;-86
2023/03/15 05:20:27;;;;;;;4.93;0.30;;;1.60;78.10;;;;;;5053211;28;20095;-86
2023/03/15 05:23:13;;;;;;;6.63;0.40;;;1.60;78.20;;;;;;5071851;28;20552;-85
2023/03/15 05:25:53;;;;;;;2.03;0.38;;;1.60;78.30;;;;;;5048183;28;20497;-86
2023/03/15 05:28:37;;;;;;;2.50;0.20;;;1.60;78.40;;;;;;5048615;28;20085;-86
2023/03/15 05:31:24;;;;;;;4.22;0.40;;;1.60;78.60;;;;;;5051341;28;20669;-86
2023/03/15 05:34:26;;;;;;;4.03;0.32;;;1.60;78.90;;;;;;5028429;28;20061;-86
2023/03/15 05:37:16;;;;;;;2.88;0.30;;;1.60;79.20;;;;;;5062022;28;20049;-86
2023/03/15 05:40:06;;;;;;;9.32;0.68;;;1.60;79.30;;;;;;5031447;28;20053;-84
2023/03/15 05:42:56;;;;;;;4.30;0.60;;;1.60;79.60;;;;;;5041957;28;20051;-86
2023/03/15 05:45:43;;;;;;;2.17;0.20;;;1.60;79.70;;;;;;5069613;28;20053;-86
2023/03/15 05:48:31;;;;;;;5.47;0.50;;;1.60;79.90;;;;;;5062411;28;20060;-85
2023/03/15 05:51:09;;;;;;;2.42;0.57;;;1.50;80.10;;;;;;5053351;28;20049;-86
2023/03/15 05:54:06;;;;;;;2.78;0.30;;;1.50;80.40;;;;;;5050900;28;20056;-84
2023/03/15 05:57:03;;;;;;;2.10;0.40;;;1.50;80.40;;;;;;5057713;28;20057;-86
2023/03/15 05:59:43;;;;;;;1.73;0.20;;;1.50;80.80;;;;;;5045003;28;20560;-85
2023/03/15 06:02:44;;;;;;;6.82;0.28;;;1.60;81.10;;;;;;5066386;28;20573;-85
2023/03/15 06:05:31;;;;;;;2.15;0.35;;;1.60;81.30;;;;;;5070383;28;20182;-85
2023/03/15 06:08:03;;;;;;;2.45;0.40;;;1.60;81.70;;;;;;5058942;28;20048;-84
2023/03/15 06:10:30;;;;;;;2.33;0.30;;;1.60;81.60;;;;;;5053289;28;20052;-85
2023/03/15 06:13:00;;;;;;;4.82;0.47;;;1.60;82.00;;;;;;5052991;28;20044;-84
2023/03/15 06:15:27;;;;;;;2.10;0.17;;;1.60;82.20;;;;;;5056606;28;20079;-85
2023/03/15 06:17:55;;;;;;;2.40;0.30;;;1.60;82.10;;;;;;5052637;28;20049;-85
2023/03/15 06:20:22;;;;;;;4.10;0.38;;;1.70;82.30;;;;;;5056032;28;20057;-86
2023/03/15 06:22:54;;;;;;;2.83;0.20;;;1.70;82.00;;;;;;5058891;28;20665;-85
2023/03/15 06:25:33;;;;;;;4.90;0.57;;;1.70;82.00;;;;;;5078243;28;20053;-85
2023/03/15 06:28:00;;;;;;;2.13;0.17;;;1.70;82.20;;;;;;5050027;28;20044;-86
2023/03/15 06:30:27;;;;;;;2.42;0.30;;;1.70;82.20;;;;;;5080345;28;20052;-85
2023/03/15 06:32:57;;;;;;;2.83;0.30;;;1.70;82.20;;;;;;5055426;28;20041;-85
2023/03/15 06:35:25;;;;;;;3.93;0.63;;;1.70;82.10;;;;;;5052754;28;20128;-84
2023/03/15 06:37:52;;;;;;;3.20;0.35;;;1.70;82.10;;;;;;5050156;28;20507;-85
2023/03/15 06:40:21;;;;;;;1.55;0.10;;;1.70;82.20;;;;;;5051134;28;20107;-85
2023/03/15 06:42:49;;;;;;;4.75;0.30;;;1.70;82.20;;;;;;5050903;28;20498;-85
2023/03/15 06:45:19;;;;;;;2.25;0.10;;;1.70;82.30;;;;;;5045760;28;20053;-86
2023/03/15 06:47:47;;;;;;;3.53;0.20;;;1.70;82.30;;;;;;5045264;28;20060;-85
2023/03/15 06:50:15;;;;;;;2.17;0.20;;;1.70;82.50;;;;;;5045850;28;20061;-85
2023/03/15 06:52:42;;;;;;;2.97;0.17;;;1.70;82.60;;;;;;5048794;28;20134;-85
2023/03/15 06:55:11;;;;;;;3.15;0.30;;;1.80;82.70;;;;;;5085536;28;20049;-84
2023/03/15 06:57:41;;;;;;;7.70;0.80;;;1.80;82.80;;;;;;5050636;28;20579;-85
2023/03/15 07:00:10;;;;;;;5.87;0.50;;;1.80;82.70;;;;;;5061098;28;20053;-84
2023/03/15 07:02:37;;;;;;;3.35;0.30;;;1.80;83.10;;;;;;5062260;28;20132;-84
2023/03/15 07:05:05;;;;;;;2.58;0.50;;;1.90;83.00;;;;;;5048846;28;20507;-86
2023/03/15 07:07:33;;;;;;;2.40;0.20;;;1.90;83.00;;;;;;5055981;28;20220;-85
2023/03/15 07:10:00;;;;;;;3.17;0.20;;;2.00;83.00;;;;;;5072387;28;20576;-85
2023/03/15 07:12:27;;;;;;;4.00;0.43;;;2.00;82.90;;;;;;5057446;28;20129;-85
2023/03/15 07:14:55;;;;;;;3.22;0.43;;;2.00;82.90;;;;;;5039235;28;20401;-84
2023/03/15 07:17:22;;;;;;;4.05;0.28;;;2.00;83.00;;;;;;5065572;28;20135;-85
2023/03/15 07:19:51;;;;;;;4.15;0.70;;;2.10;83.00;;;;;;5052763;28;20053;-85
2023/03/15 07:22:18;;;;;;;4.90;0.50;;;2.10;83.00;;;;;;5069105;28;20158;-87
2023/03/15 07:24:45;;;;;;;1.43;0.20;;;2.10;83.10;;;;;;5066926;28;20573;-86
2023/03/15 07:27:13;;;;;;;4.28;0.38;;;2.10;83.30;;;;;;5043840;28;20130;-86
2023/03/15 07:29:42;;;;;;;3.40;0.30;;;2.10;83.20;;;;;;5048377;28;20112;-84
2023/03/15 07:32:12;;;;;;;2.00;0.40;;;2.10;83.40;;;;;;5052157;28;20135;-84
2023/03/15 07:34:39;;;;;;;2.97;0.25;;;2.10;83.50;;;;;;5051270;28;20077;-84
2023/03/15 07:37:07;;;;;;;3.50;0.37;;;2.20;83.50;;;;;;5048703;28;20589;-84
2023/03/15 07:39:34;;;;;;;5.50;0.32;;;2.20;83.30;;;;;;5063732;28;20507;-85
2023/03/15 07:42:01;;;;;;;3.95;0.40;;;2.30;83.40;;;;;;5066642;28;20099;-84
2023/03/15 07:44:36;;;;;;;7.68;0.63;;;2.30;83.50;;;;;;5050042;28;20372;-83
2023/03/15 07:47:03;;;;;;;4.65;0.40;;;2.40;83.40;;;;;;5050028;28;20120;-84
2023/03/15 07:49:33;;;;;;;1.83;0.10;;;2.50;83.30;;;;;;5046372;28;20553;-85
2023/03/15 07:52:00;;;;;;;5.95;0.50;;;2.50;83.20;;;;;;5067613;28;20139;-84
2023/03/15 07:54:28;;;;;;;4.05;0.50;;;2.50;83.20;;;;;;5051105;28;20072;-84
2023/03/15 07:56:55;;;;;;;6.65;0.60;;;2.70;83.20;;;;;;5050090;28;20178;-83
2023/03/15 07:59:22;;;;;;;3.70;0.70;;;2.80;83.00;;;;;;5073763;28;20302;-83
2023/03/15 08:01:49;;;;;;;3.73;0.20;;;2.80;82.70;;;;;;5035761;28;20084;-83
2023/03/15 08:04:18;;;;;;;4.80;0.45;;;2.90;82.60;;;;;;5060073;28;20168;-84
2023/03/15 08:06:48;;;;;;;3.28;0.40;;;3.00;82.50;;;;;;5048812;28;20543;-85
2023/03/15 08:09:18;;;;;;;3.75;0.35;;;3.00;82.40;;;;;;5069443;28;20551;-84
2023/03/15 08:11:48;;;;;;;6.07;0.55;;;3.10;82.20;;;;;;5078187;28;20045;-86
2023/03/15 08:14:15;;;;;;;9.43;0.50;;;3.10;82.10;;;;;;5072393;28;20048;-85
2023/03/15 08:16:42;;;;;;;4.15;0.40;;;3.20;81.80;;;;;;5050972;28;20185;-85
2023/03/15 08:19:11;;;;;;;3.08;0.40;;;3.30;81.40;;;;;;5059785;28;20076;-84
2023/03/15 08:21:38;;;;;;;4.60;0.40;;;3.30;81.30;;;;;;5051990;28;20516;-86
2023/03/15 08:24:07;;;;;;;1.52;0.20;;;3.40;81.20;;;;;;5041013;28;20171;-84
2023/03/15 08:26:34;;;;;;;4.90;0.50;;;3.50;81.00;;;;;;5050979;28;20219;-85
2023/03/15 08:29:02;;;;;;;5.28;0.40;;;3.50;80.70;;;;;;5067030;28;20061;-84
2023/03/15 08:31:30;;;;;;;4.47;0.40;;;3.60;80.80;;;;;;5053502;28;20514;-84
2023/03/15 08:33:57;;;;;;;4.68;0.68;;;3.70;80.60;;;;;;5055517;28;20049;-85
2023/03/15 08:36:24;;;;;;;2.50;0.32;;;3.70;80.70;;;;;;5042874;28;20549;-84
2023/03/15 08:38:51;;;;;;;2.27;0.40;;;3.90;80.20;;;;;;5050033;28;20084;-85
2023/03/15 08:41:20;;;;;;;3.63;0.32;;;3.90;79.40;;;;;;5060218;28;20627;-82
2023/03/15 08:43:47;;;;;;;4.32;0.52;;;3.90;79.50;;;;;;5071168;28;20637;-85
2023/03/15 08:46:16;;;;;;;6.03;0.77;;;4.00;79.40;;;;;;5059294;28;20139;-86
2023/03/15 08:48:43;;;;;;;2.55;0.30;;;4.10;78.80;;;;;;5049920;28;20505;-80
2023/03/15 08:51:12;;;;;;;4.97;0.53;;;4.20;78.70;;;;;;5055171;28;20056;-84
2023/03/15 08:53:39;;;;;;;5.45;0.30;;;4.30;78.20;;;;;;5069394;28;20048;-83
2023/03/15 08:56:08;;;;;;;2.72;0.40;;;4.40;77.30;;;;;;5064737;28;20049;-82
2023/03/15 08:58:37;;;;;;;5.63;0.65;;;4.50;77.30;;;;;;5052092;28;20124;-85
2023/03/15 09:01:05;;;;;;;2.45;0.30;;;4.50;76.40;;;;;;5047511;28;20077;-82
2023/03/15 09:03:33;;;;;;;3.93;0.30;;;4.50;75.50;;;;;;5079228;28;20053;-84
2023/03/15 09:06:00;;;;;;;3.50;0.55;;;4.50;75.50;;;;;;5076682;28;20045;-82
2023/03/15 09:08:28;;;;;;;3.65;0.28;;;4.60;74.20;;;;;;5067837;28;20053;-81
2023/03/15 09:10:55;;;;;;;4.28;0.57;;;4.60;74.80;;;;;;5091613;28;20108;-84
2023/03/15 09:13:23;;;;;;;3.50;0.50;;;4.70;73.60;;;;;;5060155;28;20058;-83
2023/03/15 09:15:52;;;;;;;6.10;0.30;;;4.70;72.60;;;;;;5049292;28;20130;-82
2023/03/15 09:18:21;;;;;;;6.47;0.82;;;4.70;73.70;;;;;;5065974;28;20064;-83
2023/03/15 09:20:48;;;;;;;6.97;0.98;;;4.70;72.50;;;;;;5063470;28;20128;-87
2023/03/15 09:23:15;;;;;;;4.30;0.52;;;4.80;71.90;;;;;;5047866;28;20060;-81
2023/03/15 09:25:42;;;;;;;3.38;0.40;;;4.80;73.00;;;;;;5048280;28;20060;-86
2023/03/15 09:28:11;;;;;;;5.47;0.50;;;4.90;73.30;;;;;;5070960;28;20759;-82
2023/03/15 09:30:40;;;;;;;2.55;0.40;;;5.00;73.40;;;;;;5073906;28;20045;-86
2023/03/15 09:33:13;;;;;;;3.40;0.38;;;5.00;73.20;;;;;;5064610;28;20092;-86
2023/03/15 09:35:40;;;;;;;3.03;0.30;;;5.00;73.50;;;;;;5068325;28;20060;-86
2023/03/15 09:38:08;;;;;;;1.85;0.20;;;5.10;72.70;;;;;;5077476;28;20546;-85
2023/03/15 09:40:40;;;;;;;3.23;0.40;;;5.10;71.80;;;;;;5095366;28;20049;-85
2023/03/15 09:43:23;;;;;;;3.22;0.30;;;5.20;72.20;;;;;;5054380;28;20104;-85
2023/03/15 09:46:02;;;;;;;3.63;0.70;;;5.30;70.80;;;;;;5047164;28;20596;-83
2023/03/15 09:48:34;;;;;;;4.13;0.60;;;5.30;70.40;;;;;;5072034;28;20057;-85
2023/03/15 09:51:07;;;;;;;2.50;0.28;;;5.30;70.10;;;;;;5066835;28;20508;-86
2023/03/15 09:53:40;;;;;;;3.00;0.27;;;5.30;71.10;;;;;;5061308;28;20326;-85
2023/03/15 09:56:22;;;;;;;3.72;0.40;;;5.40;70.70;;;;;;5052912;28;20136;-83
2023/03/15 09:58:52;;;;;;;5.88;0.50;;;5.50;70.40;;;;;;5052880;28;20099;-82
2023/03/15 10:01:24;;;;;;;4.05;0.45;;;5.50;70.20;;;;;;5052424;28;20072;-86
2023/03/15 10:03:53;;;;;;;2.95;0.50;;;5.60;68.90;;;;;;5044728;28;20112;-86
2023/03/15 10:06:26;;;;;;;6.07;0.60;;;5.60;69.20;;;;;;5070007;28;20053;-85
2023/03/15 10:08:57;;;;;;;3.35;0.25;;;5.60;70.40;;;;;;5070482;28;20053;-87
2023/03/15 10:11:29;;;;;;;2.97;0.28;;;5.70;67.50;;;;;;5070471;28;20578;-87
2023/03/15 10:14:14;;;;;;;5.30;0.70;;;5.70;66.80;;;;;;5070361;28;20169;-83
2023/03/15 10:16:46;;;;;;;2.85;0.40;;;5.70;68.00;;;;;;5069807;28;20525;-86
2023/03/15 10:19:22;;;;;;;4.90;0.50;;;5.80;67.20;;;;;;5050511;28;20062;-83
2023/03/15 10:22:00;;;;;;;5.93;0.40;;;5.90;62.80;;;;;;5052141;28;20045;-86
2023/03/15 10:24:34;;;;;;;3.53;0.38;;;5.90;62.90;;;;;;5053975;28;20106;-86
2023/03/15 10:27:13;;;;;;;2.55;0.17;;;5.90;63.50;;;;;;5050596;28;20045;-87
2023/03/15 10:29:40;;;;;;;4.82;0.57;;;5.90;61.80;;;;;;5059306;28;20063;-86
2023/03/15 10:32:17;;;;;;;2.30;0.20;;;5.90;62.80;;;;;;5057217;28;20501;-86
2023/03/15 10:34:48;;;;;;;6.53;0.80;;;6.00;63.30;;;;;;5066945;28;20063;-86
2023/03/15 10:37:16;;;;;;;4.03;0.40;;;6.00;64.20;;;;;;5054975;28;20061;-85
2023/03/15 10:39:48;;;;;;;3.20;0.47;;;6.10;64.40;;;;;;5070417;28;20127;-86
2023/03/15 10:42:30;;;;;;;5.88;0.70;;;6.10;62.70;;;;;;5052992;28;20068;-83
2023/03/15 10:44:58;;;;;;;3.70;0.50;;;6.20;63.20;;;;;;5061879;28;20123;-85
2023/03/15 10:47:28;;;;;;;3.67;0.32;;;6.20;61.20;;;;;;5050209;28;20053;-84
2023/03/15 10:50:00;;;;;;;5.18;0.38;;;6.20;59.30;;;;;;5063659;28;20053;-86
2023/03/15 10:52:34;;;;;;;2.67;0.40;;;6.10;58.90;;;;;;5070157;28;20111;-85
2023/03/15 10:55:05;;;;;;;4.80;0.63;;;6.10;58.90;;;;;;5044927;28;20128;-86
2023/03/15 10:57:39;;;;;;;3.87;0.43;;;6.10;58.90;;;;;;5047752;28;20119;-86
2023/03/15 11:00:21;;;;;;;2.30;0.30;;;6.10;60.50;;;;;;5043685;28;20448;-85
2023/03/15 11:02:50;;;;;;;3.33;0.20;;;6.10;61.40;;;;;;5069748;28;20627;-85
2023/03/15 11:05:20;;;;;;;5.82;0.38;;;6.20;60.50;;;;;;5058309;28;20049;-85
2023/03/15 11:07:55;;;;;;;4.85;0.50;;;6.20;59.60;;;;;;5054478;28;20083;-85
2023/03/15 11:10:24;;;;;;;2.63;0.40;;;6.20;57.60;;;;;;5050139;28;20061;-86
2023/03/15 11:13:08;;;;;;;4.35;0.22;;;6.30;58.50;;;;;;5049516;28;20045;-85
2023/03/15 11:15:35;;;;;;;3.70;0.28;;;6.40;57.40;;;;;;5069122;28;20496;-85
2023/03/15 11:18:02;;;;;;;4.40;0.43;;;6.40;56.70;;;;;;5050378;28;20455;-83
2023/03/15 11:20:34;;;;;;;5.00;0.30;;;6.50;57.50;;;;;;5068131;28;20080;-84
2023/03/15 11:23:16;;;;;;;3.37;0.40;;;6.50;57.90;;;;;;5062843;28;20053;-84
2023/03/15 11:25:44;;;;;;;3.67;0.40;;;6.60;56.80;;;;;;5062199;28;20581;-82
2023/03/15 11:28:18;;;;;;;3.53;0.20;;;6.60;58.40;;;;;;5063097;28;20053;-84
2023/03/15 11:30:47;;;;;;;5.90;0.50;;;6.70;56.90;;;;;;5045026;28;20144;-83
2023/03/15 11:33:26;;;;;;;3.20;0.30;;;6.70;56.20;;;;;;5063198;28;20046;-86
2023/03/15 11:35:58;;;;;;;5.07;0.60;;;6.70;57.20;;;;;;5094437;28;20152;-84
2023/03/15 11:38:32;;;;;;;5.25;0.30;;;6.80;57.40;;;;;;5062727;28;20490;-81
2023/03/15 11:41:09;;;;;;;5.03;0.88;;;6.90;56.40;;;;;;5063889;28;20060;-86
2023/03/15 11:43:47;;;;;;;4.22;0.40;;;7.00;56.50;;;;;;5050235;28;20140;-82
2023/03/15 11:46:21;;;;;;;3.10;0.47;;;7.00;56.40;;;;;;5065858;28;20579;-84
2023/03/15 11:48:52;;;;;;;4.03;0.37;;;7.00;56.00;;;;;;5061675;28;20178;-85
2023/03/15 11:51:21;;;;;;;4.03;0.40;;;7.00;56.50;;;;;;5065514;28;20073;-85
2023/03/15 11:54:04;;;;;;;4.13;0.35;;;7.20;57.50;;;;;;5049990;28;20139;-86
2023/03/15 11:56:47;;;;;;;3.60;0.40;;;7.20;57.30;;;;;;5094574;28;20049;-85
2023/03/15 11:59:16;;;;;;;5.38;0.45;;;7.40;56.30;;;;;;5065880;28;20124;-86
2023/03/15 12:01:48;;;;;;;7.67;0.70;;;7.40;57.00;;;;;;5045858;28;20096;-88
2023/03/15 12:04:42;;;;;;;2.88;0.47;;;7.50;57.90;;;;;;5091443;28;20504;-88
2023/03/15 12:07:46;;;;;;;3.13;0.30;;;7.50;55.70;;;;;;5080023;28;20050;-86
2023/03/15 12:10:45;;;;;;;4.80;0.40;;;7.60;57.20;;;;;;5049091;28;20064;-87
2023/03/15 12:13:26;;;;;;;3.58;0.30;;;7.60;54.10;;;;;;5045001;28;20061;-86
2023/03/15 12:15:55;;;;;;;6.63;0.50;;;7.60;55.70;;;;;;5042835;28;20111;-86
2023/03/15 12:18:27;;;;;;;3.05;0.30;;;7.70;56.50;;;;;;5085284;28;20606;-85
2023/03/15 12:21:07;;;;;;;2.70;0.28;;;7.80;56.20;;;;;;5050218;28;20102;-86
2023/03/15 12:23:41;;;;;;;3.97;0.40;;;7.80;54.90;;;;;;5064181;28;20053;-86
2023/03/15 12:26:23;;;;;;;2.28;0.20;;;7.80;52.90;;;;;;5051029;28;20049;-86
2023/03/15 12:28:53;;;;;;;4.10;0.40;;;7.80;54.50;;;;;;5058184;28;20156;-86
2023/03/15 12:31:20;;;;;;;3.88;0.30;;;7.80;54.60;;;;;;5057447;28;20118;-85
2023/03/15 12:33:51;;;;;;;3.65;0.28;;;7.80;54.70;;;;;;5064309;28;20135;-83
2023/03/15 12:36:31;;;;;;;3.60;0.30;;;7.90;53.90;;;;;;5062927;28;20057;-86
2023/03/15 12:39:03;;;;;;;2.83;0.30;;;7.90;53.80;;;;;;5047421;28;20650;-86
2023/03/15 12:41:40;;;;;;;5.40;0.60;;;7.90;53.90;;;;;;5066721;28;20637;-86
2023/03/15 12:44:39;;;;;;;6.20;0.60;;;8.00;54.40;;;;;;5045430;28;20587;-86
2023/03/15 12:47:07;;;;;;;4.63;0.57;;;8.00;54.50;;;;;;5012381;28;20059;-84
2023/03/15 12:49:41;;;;;;;3.83;0.40;;;8.00;55.30;;;;;;5065092;28;20061;-85
2023/03/15 12:52:38;;;;;;;3.75;0.52;;;8.10;53.70;;;;;;5045858;28;20417;-87
2023/03/15 12:55:13;;;;;;;6.03;0.60;;;8.10;53.80;;;;;;5050638;28;20053;-83
2023/03/15 12:57:48;;;;;;;3.05;0.40;;;8.10;54.90;;;;;;5096845;27;20052;-87
2023/03/15 13:00:20;;;;;;;4.38;0.45;;;8.20;54.10;;;;;;5045347;28;20508;-83
2023/03/15 13:02:49;;;;;;;4.25;0.50;;;8.20;53.30;;;;;;5058799;28;20123;-86
2023/03/15 13:05:22;;;;;;;5.47;0.50;;;8.20;51.90;;;;;;5060149;28;20143;-83
2023/03/15 13:08:06;;;;;;;4.17;0.47;;;8.20;53.00;;;;;;5066958;28;20045;-86
2023/03/15 13:10:51;;;;;;;3.30;0.63;;;8.20;52.60;;;;;;5068894;28;20059;-86
2023/03/15 13:13:34;;;;;;;5.18;0.50;;;8.20;51.50;;;;;;5069276;28;20103;-85
2023/03/15 13:16:16;;;;;;;5.03;0.50;;;8.20;51.20;;;;;;5068209;28;20053;-85
2023/03/15 13:18:52;;;;;;;3.85;0.70;;;8.20;50.90;;;;;;5068798;28;20057;-84
2023/03/15 13:21:26;;;;;;;3.17;0.40;;;8.20;51.60;;;;;;5064878;28;20057;-86
2023/03/15 13:23:57;;;;;;;3.33;0.40;;;8.20;52.50;;;;;;5063122;28;20128;-85
2023/03/15 13:26:37;;;;;;;3.85;0.32;;;8.20;50.60;;;;;;5099810;27;20053;-87